sensor_id;sensor_type;location;lat;lon;timestamp;P1;durP1;ratioP1;P2;durP2;ratioP2
16634;SDS011;8431;52.458;9.998;2022-12-05T00:01:27;78.43;;;33.15;;
16634;SDS011;8431;52.458;9.998;2022-12-05T00:03:59;79.03;;;32.58;;
16634;SDS011;8431;52.458;9.998;2022-12-05T00:06:28;86.38;;;33.70;;
16634;SDS011;8431;52.458;9.998;2022-12-05T00:08:56;69.78;;;31.73;;
16634;SDS011;8431;52.458;9.998;2022-12-05T00:11:24;79.05;;;31.77;;
16634;SDS011;8431;52.458;9.998;2022-12-05T00:13:55;74.53;;;31.50;;
16634;SDS011;8431;52.458;9.998;2022-12-05T00:16:24;79.30;;;33.72;;
16634;SDS011;8431;52.458;9.998;2022-12-05T00:18:57;71.20;;;32.33;;
16634;SDS011;8431;52.458;9.998;2022-12-05T00:21:26;73.30;;;32.33;;
16634;SDS011;8431;52.458;9.998;2022-12-05T00:23:54;78.30;;;31.77;;
16634;SDS011;8431;52.458;9.998;2022-12-05T00:26:23;80.60;;;32.63;;
16634;SDS011;8431;52.458;9.998;2022-12-05T00:28:50;70.30;;;32.47;;
16634;SDS011;8431;52.458;9.998;2022-12-05T00:31:20;73.10;;;31.67;;
16634;SDS011;8431;52.458;9.998;2022-12-05T00:33:49;80.13;;;32.22;;
16634;SDS011;8431;52.458;9.998;2022-12-05T00:36:17;77.53;;;31.98;;
16634;SDS011;8431;52.458;9.998;2022-12-05T00:38:45;75.05;;;32.53;;
16634;SDS011;8431;52.458;9.998;2022-12-05T00:41:13;74.18;;;30.77;;
16634;SDS011;8431;52.458;9.998;2022-12-05T00:43:42;75.75;;;33.28;;
16634;SDS011;8431;52.458;9.998;2022-12-05T00:46:10;77.65;;;31.05;;
16634;SDS011;8431;52.458;9.998;2022-12-05T00:48:40;70.72;;;30.60;;
16634;SDS011;8431;52.458;9.998;2022-12-05T00:51:09;75.90;;;31.42;;
16634;SDS011;8431;52.458;9.998;2022-12-05T00:53:37;72.75;;;29.77;;
16634;SDS011;8431;52.458;9.998;2022-12-05T00:56:05;74.80;;;31.08;;
16634;SDS011;8431;52.458;9.998;2022-12-05T00:58:34;77.50;;;32.38;;
16634;SDS011;8431;52.458;9.998;2022-12-05T01:01:05;80.75;;;31.50;;
16634;SDS011;8431;52.458;9.998;2022-12-05T01:03:33;67.65;;;29.92;;
16634;SDS011;8431;52.458;9.998;2022-12-05T01:06:02;74.88;;;32.20;;
16634;SDS011;8431;52.458;9.998;2022-12-05T01:08:32;71.53;;;30.95;;
16634;SDS011;8431;52.458;9.998;2022-12-05T01:11:00;72.63;;;30.83;;
16634;SDS011;8431;52.458;9.998;2022-12-05T01:13:28;73.20;;;29.75;;
16634;SDS011;8431;52.458;9.998;2022-12-05T01:15:55;71.38;;;31.92;;
16634;SDS011;8431;52.458;9.998;2022-12-05T01:18:23;66.40;;;30.52;;
16634;SDS011;8431;52.458;9.998;2022-12-05T01:20:50;72.68;;;30.23;;
16634;SDS011;8431;52.458;9.998;2022-12-05T01:23:19;63.47;;;28.30;;
16634;SDS011;8431;52.458;9.998;2022-12-05T01:25:49;69.05;;;29.63;;
16634;SDS011;8431;52.458;9.998;2022-12-05T01:28:17;69.85;;;30.90;;
16634;SDS011;8431;52.458;9.998;2022-12-05T01:30:45;71.70;;;30.20;;
16634;SDS011;8431;52.458;9.998;2022-12-05T01:33:14;67.82;;;30.08;;
16634;SDS011;8431;52.458;9.998;2022-12-05T01:35:41;71.53;;;30.25;;
16634;SDS011;8431;52.458;9.998;2022-12-05T01:38:09;69.85;;;29.92;;
16634;SDS011;8431;52.458;9.998;2022-12-05T01:40:39;66.55;;;28.08;;
16634;SDS011;8431;52.458;9.998;2022-12-05T01:43:09;65.80;;;29.33;;
16634;SDS011;8431;52.458;9.998;2022-12-05T01:45:41;71.50;;;29.52;;
16634;SDS011;8431;52.458;9.998;2022-12-05T01:48:10;64.72;;;29.80;;
16634;SDS011;8431;52.458;9.998;2022-12-05T01:50:40;62.45;;;28.08;;
16634;SDS011;8431;52.458;9.998;2022-12-05T01:53:07;75.40;;;29.67;;
16634;SDS011;8431;52.458;9.998;2022-12-05T01:55:35;70.35;;;29.63;;
16634;SDS011;8431;52.458;9.998;2022-12-05T01:58:04;68.03;;;29.55;;
16634;SDS011;8431;52.458;9.998;2022-12-05T02:00:33;65.53;;;28.08;;
16634;SDS011;8431;52.458;9.998;2022-12-05T02:03:01;65.32;;;28.90;;
16634;SDS011;8431;52.458;9.998;2022-12-05T02:05:32;65.65;;;27.90;;
16634;SDS011;8431;52.458;9.998;2022-12-05T02:08:02;67.57;;;28.77;;
16634;SDS011;8431;52.458;9.998;2022-12-05T02:10:34;69.03;;;28.92;;
16634;SDS011;8431;52.458;9.998;2022-12-05T02:16:07;68.20;;;28.35;;
16634;SDS011;8431;52.458;9.998;2022-12-05T02:18:45;64.68;;;28.15;;
16634;SDS011;8431;52.458;9.998;2022-12-05T02:21:32;72.45;;;28.73;;
16634;SDS011;8431;52.458;9.998;2022-12-05T02:27:35;61.78;;;27.42;;
16634;SDS011;8431;52.458;9.998;2022-12-05T02:30:15;68.55;;;27.38;;
16634;SDS011;8431;52.458;9.998;2022-12-05T02:32:51;67.18;;;27.17;;
16634;SDS011;8431;52.458;9.998;2022-12-05T02:35:31;62.40;;;27.45;;
16634;SDS011;8431;52.458;9.998;2022-12-05T02:38:10;59.80;;;26.73;;
16634;SDS011;8431;52.458;9.998;2022-12-05T02:40:48;63.53;;;27.30;;
16634;SDS011;8431;52.458;9.998;2022-12-05T02:43:24;57.22;;;25.98;;
16634;SDS011;8431;52.458;9.998;2022-12-05T02:46:02;71.57;;;28.02;;
16634;SDS011;8431;52.458;9.998;2022-12-05T02:48:33;64.03;;;26.80;;
16634;SDS011;8431;52.458;9.998;2022-12-05T02:51:02;58.90;;;25.98;;
16634;SDS011;8431;52.458;9.998;2022-12-05T02:53:30;65.95;;;27.80;;
16634;SDS011;8431;52.458;9.998;2022-12-05T02:55:58;59.05;;;27.05;;
16634;SDS011;8431;52.458;9.998;2022-12-05T02:58:27;68.43;;;27.77;;
16634;SDS011;8431;52.458;9.998;2022-12-05T03:01:00;61.13;;;26.70;;
16634;SDS011;8431;52.458;9.998;2022-12-05T03:03:28;71.18;;;27.77;;
16634;SDS011;8431;52.458;9.998;2022-12-05T03:05:59;61.70;;;27.35;;
16634;SDS011;8431;52.458;9.998;2022-12-05T03:08:31;64.47;;;27.13;;
16634;SDS011;8431;52.458;9.998;2022-12-05T03:11:02;71.75;;;26.67;;
16634;SDS011;8431;52.458;9.998;2022-12-05T03:13:39;59.78;;;26.08;;
16634;SDS011;8431;52.458;9.998;2022-12-05T03:16:13;69.18;;;26.85;;
16634;SDS011;8431;52.458;9.998;2022-12-05T03:18:44;61.00;;;27.00;;
16634;SDS011;8431;52.458;9.998;2022-12-05T03:21:16;61.53;;;28.17;;
16634;SDS011;8431;52.458;9.998;2022-12-05T03:23:50;60.03;;;27.05;;
16634;SDS011;8431;52.458;9.998;2022-12-05T03:26:25;62.95;;;26.70;;
16634;SDS011;8431;52.458;9.998;2022-12-05T03:29:07;58.92;;;25.73;;
16634;SDS011;8431;52.458;9.998;2022-12-05T03:31:50;59.53;;;26.02;;
16634;SDS011;8431;52.458;9.998;2022-12-05T03:34:26;58.15;;;24.98;;
16634;SDS011;8431;52.458;9.998;2022-12-05T03:37:01;57.42;;;25.92;;
16634;SDS011;8431;52.458;9.998;2022-12-05T03:39:37;55.03;;;25.65;;
16634;SDS011;8431;52.458;9.998;2022-12-05T03:42:08;56.55;;;25.17;;
16634;SDS011;8431;52.458;9.998;2022-12-05T03:44:41;52.95;;;25.20;;
16634;SDS011;8431;52.458;9.998;2022-12-05T03:47:16;56.30;;;24.95;;
16634;SDS011;8431;52.458;9.998;2022-12-05T03:49:49;59.08;;;26.02;;
16634;SDS011;8431;52.458;9.998;2022-12-05T03:52:21;59.97;;;26.25;;
16634;SDS011;8431;52.458;9.998;2022-12-05T03:54:54;58.63;;;25.10;;
16634;SDS011;8431;52.458;9.998;2022-12-05T03:57:24;58.90;;;25.30;;
16634;SDS011;8431;52.458;9.998;2022-12-05T03:59:55;60.05;;;23.85;;
16634;SDS011;8431;52.458;9.998;2022-12-05T04:02:29;61.78;;;24.05;;
16634;SDS011;8431;52.458;9.998;2022-12-05T04:05:09;60.05;;;24.70;;
16634;SDS011;8431;52.458;9.998;2022-12-05T04:07:45;57.75;;;24.13;;
16634;SDS011;8431;52.458;9.998;2022-12-05T04:10:15;54.17;;;24.80;;
16634;SDS011;8431;52.458;9.998;2022-12-05T04:12:46;60.17;;;24.63;;
16634;SDS011;8431;52.458;9.998;2022-12-05T04:15:18;49.10;;;23.33;;
16634;SDS011;8431;52.458;9.998;2022-12-05T04:17:50;53.53;;;24.17;;
16634;SDS011;8431;52.458;9.998;2022-12-05T04:20:22;48.47;;;24.13;;
16634;SDS011;8431;52.458;9.998;2022-12-05T04:23:11;53.85;;;22.80;;
16634;SDS011;8431;52.458;9.998;2022-12-05T04:25:41;53.10;;;23.38;;
16634;SDS011;8431;52.458;9.998;2022-12-05T04:28:19;54.53;;;23.25;;
16634;SDS011;8431;52.458;9.998;2022-12-05T04:30:54;57.20;;;23.40;;
16634;SDS011;8431;52.458;9.998;2022-12-05T04:33:31;57.15;;;23.13;;
16634;SDS011;8431;52.458;9.998;2022-12-05T04:36:06;47.92;;;22.48;;
16634;SDS011;8431;52.458;9.998;2022-12-05T04:38:38;55.30;;;22.98;;
16634;SDS011;8431;52.458;9.998;2022-12-05T04:41:12;57.28;;;22.52;;
16634;SDS011;8431;52.458;9.998;2022-12-05T04:43:41;49.15;;;22.08;;
16634;SDS011;8431;52.458;9.998;2022-12-05T04:46:11;54.53;;;23.02;;
16634;SDS011;8431;52.458;9.998;2022-12-05T04:48:42;56.05;;;25.50;;
16634;SDS011;8431;52.458;9.998;2022-12-05T04:51:15;50.10;;;22.83;;
16634;SDS011;8431;52.458;9.998;2022-12-05T04:53:45;52.10;;;22.52;;
16634;SDS011;8431;52.458;9.998;2022-12-05T04:56:17;53.35;;;22.98;;
16634;SDS011;8431;52.458;9.998;2022-12-05T04:58:45;48.40;;;22.38;;
16634;SDS011;8431;52.458;9.998;2022-12-05T05:01:13;48.38;;;22.85;;
16634;SDS011;8431;52.458;9.998;2022-12-05T05:03:44;46.80;;;22.45;;
16634;SDS011;8431;52.458;9.998;2022-12-05T05:06:15;51.55;;;21.10;;
16634;SDS011;8431;52.458;9.998;2022-12-05T05:08:46;52.08;;;21.92;;
16634;SDS011;8431;52.458;9.998;2022-12-05T05:11:15;55.00;;;22.95;;
16634;SDS011;8431;52.458;9.998;2022-12-05T05:13:45;48.03;;;21.00;;
16634;SDS011;8431;52.458;9.998;2022-12-05T05:16:13;46.20;;;20.33;;
16634;SDS011;8431;52.458;9.998;2022-12-05T05:18:45;52.55;;;22.25;;
16634;SDS011;8431;52.458;9.998;2022-12-05T05:21:14;57.22;;;22.92;;
16634;SDS011;8431;52.458;9.998;2022-12-05T05:23:44;47.80;;;22.92;;
16634;SDS011;8431;52.458;9.998;2022-12-05T05:26:11;50.83;;;21.92;;
16634;SDS011;8431;52.458;9.998;2022-12-05T05:28:38;56.67;;;23.13;;
16634;SDS011;8431;52.458;9.998;2022-12-05T05:31:05;45.10;;;21.98;;
16634;SDS011;8431;52.458;9.998;2022-12-05T05:33:32;47.85;;;22.25;;
16634;SDS011;8431;52.458;9.998;2022-12-05T05:36:02;48.10;;;21.98;;
16634;SDS011;8431;52.458;9.998;2022-12-05T05:38:30;47.33;;;22.25;;
16634;SDS011;8431;52.458;9.998;2022-12-05T05:41:01;45.15;;;21.48;;
16634;SDS011;8431;52.458;9.998;2022-12-05T05:43:28;42.22;;;21.45;;
16634;SDS011;8431;52.458;9.998;2022-12-05T05:45:56;43.05;;;20.27;;
16634;SDS011;8431;52.458;9.998;2022-12-05T05:48:23;47.65;;;21.77;;
16634;SDS011;8431;52.458;9.998;2022-12-05T05:50:50;43.08;;;20.67;;
16634;SDS011;8431;52.458;9.998;2022-12-05T05:53:18;43.28;;;21.10;;
16634;SDS011;8431;52.458;9.998;2022-12-05T05:55:45;39.50;;;19.75;;
16634;SDS011;8431;52.458;9.998;2022-12-05T05:58:12;45.70;;;21.58;;
16634;SDS011;8431;52.458;9.998;2022-12-05T06:00:39;39.20;;;20.10;;
16634;SDS011;8431;52.458;9.998;2022-12-05T06:03:06;39.45;;;20.90;;
16634;SDS011;8431;52.458;9.998;2022-12-05T06:05:37;36.80;;;19.10;;
16634;SDS011;8431;52.458;9.998;2022-12-05T06:08:04;44.30;;;20.45;;
16634;SDS011;8431;52.458;9.998;2022-12-05T06:10:33;41.08;;;19.23;;
16634;SDS011;8431;52.458;9.998;2022-12-05T06:13:00;37.88;;;19.75;;
16634;SDS011;8431;52.458;9.998;2022-12-05T06:15:27;37.30;;;19.17;;
16634;SDS011;8431;52.458;9.998;2022-12-05T06:17:55;45.08;;;20.48;;
16634;SDS011;8431;52.458;9.998;2022-12-05T06:20:22;40.55;;;19.48;;
16634;SDS011;8431;52.458;9.998;2022-12-05T06:22:49;41.53;;;19.75;;
16634;SDS011;8431;52.458;9.998;2022-12-05T06:25:16;44.80;;;20.30;;
16634;SDS011;8431;52.458;9.998;2022-12-05T06:27:44;41.15;;;18.85;;
16634;SDS011;8431;52.458;9.998;2022-12-05T06:30:12;36.00;;;19.05;;
16634;SDS011;8431;52.458;9.998;2022-12-05T06:32:39;39.80;;;18.77;;
16634;SDS011;8431;52.458;9.998;2022-12-05T06:35:07;37.58;;;19.35;;
16634;SDS011;8431;52.458;9.998;2022-12-05T06:37:39;38.53;;;19.35;;
16634;SDS011;8431;52.458;9.998;2022-12-05T06:40:07;45.03;;;20.13;;
16634;SDS011;8431;52.458;9.998;2022-12-05T06:42:35;38.65;;;20.10;;
16634;SDS011;8431;52.458;9.998;2022-12-05T06:45:03;39.95;;;19.38;;
16634;SDS011;8431;52.458;9.998;2022-12-05T06:47:31;41.50;;;19.05;;
16634;SDS011;8431;52.458;9.998;2022-12-05T06:49:58;36.85;;;19.35;;
16634;SDS011;8431;52.458;9.998;2022-12-05T06:52:25;36.92;;;18.63;;
16634;SDS011;8431;52.458;9.998;2022-12-05T06:54:52;38.85;;;19.10;;
16634;SDS011;8431;52.458;9.998;2022-12-05T06:57:19;35.85;;;18.58;;
16634;SDS011;8431;52.458;9.998;2022-12-05T06:59:46;41.65;;;19.83;;
16634;SDS011;8431;52.458;9.998;2022-12-05T07:02:14;37.13;;;18.60;;
16634;SDS011;8431;52.458;9.998;2022-12-05T07:04:40;40.92;;;19.15;;
16634;SDS011;8431;52.458;9.998;2022-12-05T07:07:07;42.95;;;19.27;;
16634;SDS011;8431;52.458;9.998;2022-12-05T07:09:34;37.03;;;20.10;;
16634;SDS011;8431;52.458;9.998;2022-12-05T07:12:18;43.97;;;19.58;;
16634;SDS011;8431;52.458;9.998;2022-12-05T07:14:45;44.00;;;19.75;;
16634;SDS011;8431;52.458;9.998;2022-12-05T07:17:12;39.05;;;20.48;;
16634;SDS011;8431;52.458;9.998;2022-12-05T07:19:41;45.50;;;21.63;;
16634;SDS011;8431;52.458;9.998;2022-12-05T07:22:08;47.05;;;20.85;;
16634;SDS011;8431;52.458;9.998;2022-12-05T07:24:35;42.03;;;19.48;;
16634;SDS011;8431;52.458;9.998;2022-12-05T07:27:02;41.70;;;19.10;;
16634;SDS011;8431;52.458;9.998;2022-12-05T07:29:30;49.15;;;20.17;;
16634;SDS011;8431;52.458;9.998;2022-12-05T07:31:57;41.10;;;20.10;;
16634;SDS011;8431;52.458;9.998;2022-12-05T07:34:26;41.85;;;19.17;;
16634;SDS011;8431;52.458;9.998;2022-12-05T07:39:25;40.75;;;18.85;;
16634;SDS011;8431;52.458;9.998;2022-12-05T07:41:52;45.63;;;21.10;;
16634;SDS011;8431;52.458;9.998;2022-12-05T07:44:19;42.80;;;20.27;;
16634;SDS011;8431;52.458;9.998;2022-12-05T07:46:46;40.95;;;20.50;;
16634;SDS011;8431;52.458;9.998;2022-12-05T07:49:13;44.17;;;20.30;;
16634;SDS011;8431;52.458;9.998;2022-12-05T07:51:42;47.40;;;19.77;;
16634;SDS011;8431;52.458;9.998;2022-12-05T07:54:09;49.92;;;20.20;;
16634;SDS011;8431;52.458;9.998;2022-12-05T07:56:36;42.40;;;19.75;;
16634;SDS011;8431;52.458;9.998;2022-12-05T07:59:03;44.63;;;20.33;;
16634;SDS011;8431;52.458;9.998;2022-12-05T08:01:30;44.67;;;20.00;;
16634;SDS011;8431;52.458;9.998;2022-12-05T08:03:58;36.40;;;19.50;;
16634;SDS011;8431;52.458;9.998;2022-12-05T08:06:25;43.63;;;20.83;;
16634;SDS011;8431;52.458;9.998;2022-12-05T08:08:55;46.75;;;19.75;;
16634;SDS011;8431;52.458;9.998;2022-12-05T08:11:24;43.45;;;21.30;;
16634;SDS011;8431;52.458;9.998;2022-12-05T08:13:52;44.28;;;19.63;;
16634;SDS011;8431;52.458;9.998;2022-12-05T08:16:20;41.65;;;19.75;;
16634;SDS011;8431;52.458;9.998;2022-12-05T08:18:48;41.88;;;20.25;;
16634;SDS011;8431;52.458;9.998;2022-12-05T08:21:19;48.28;;;21.17;;
16634;SDS011;8431;52.458;9.998;2022-12-05T08:23:46;44.45;;;20.35;;
16634;SDS011;8431;52.458;9.998;2022-12-05T08:26:16;44.25;;;20.80;;
16634;SDS011;8431;52.458;9.998;2022-12-05T08:28:44;42.15;;;20.58;;
16634;SDS011;8431;52.458;9.998;2022-12-05T08:31:13;41.03;;;20.00;;
16634;SDS011;8431;52.458;9.998;2022-12-05T08:33:42;46.53;;;20.67;;
16634;SDS011;8431;52.458;9.998;2022-12-05T08:36:10;39.97;;;19.45;;
16634;SDS011;8431;52.458;9.998;2022-12-05T08:38:39;41.60;;;18.83;;
16634;SDS011;8431;52.458;9.998;2022-12-05T08:41:07;43.30;;;19.70;;
16634;SDS011;8431;52.458;9.998;2022-12-05T08:43:37;44.05;;;19.40;;
16634;SDS011;8431;52.458;9.998;2022-12-05T08:46:04;40.80;;;19.27;;
16634;SDS011;8431;52.458;9.998;2022-12-05T08:48:32;41.60;;;18.70;;
16634;SDS011;8431;52.458;9.998;2022-12-05T08:51:03;44.45;;;19.92;;
16634;SDS011;8431;52.458;9.998;2022-12-05T08:53:31;38.83;;;19.20;;
16634;SDS011;8431;52.458;9.998;2022-12-05T08:55:59;43.35;;;18.77;;
16634;SDS011;8431;52.458;9.998;2022-12-05T08:58:27;36.20;;;17.88;;
16634;SDS011;8431;52.458;9.998;2022-12-05T09:01:01;36.50;;;18.13;;
16634;SDS011;8431;52.458;9.998;2022-12-05T09:03:29;35.70;;;17.90;;
16634;SDS011;8431;52.458;9.998;2022-12-05T09:06:03;37.83;;;18.05;;
16634;SDS011;8431;52.458;9.998;2022-12-05T09:08:31;38.88;;;17.10;;
16634;SDS011;8431;52.458;9.998;2022-12-05T09:10:58;40.30;;;17.38;;
16634;SDS011;8431;52.458;9.998;2022-12-05T09:13:25;33.30;;;16.50;;
16634;SDS011;8431;52.458;9.998;2022-12-05T09:15:52;38.67;;;17.83;;
16634;SDS011;8431;52.458;9.998;2022-12-05T09:18:21;31.73;;;16.15;;
16634;SDS011;8431;52.458;9.998;2022-12-05T09:20:48;27.98;;;15.05;;
16634;SDS011;8431;52.458;9.998;2022-12-05T09:23:15;27.73;;;14.80;;
16634;SDS011;8431;52.458;9.998;2022-12-05T09:25:42;28.20;;;15.55;;
16634;SDS011;8431;52.458;9.998;2022-12-05T09:28:09;30.38;;;15.85;;
16634;SDS011;8431;52.458;9.998;2022-12-05T09:30:36;37.55;;;16.73;;
16634;SDS011;8431;52.458;9.998;2022-12-05T09:33:03;33.80;;;16.58;;
16634;SDS011;8431;52.458;9.998;2022-12-05T09:35:31;28.60;;;15.38;;
16634;SDS011;8431;52.458;9.998;2022-12-05T09:37:58;29.48;;;15.93;;
16634;SDS011;8431;52.458;9.998;2022-12-05T09:40:25;27.67;;;14.48;;
16634;SDS011;8431;52.458;9.998;2022-12-05T09:42:55;26.92;;;14.93;;
16634;SDS011;8431;52.458;9.998;2022-12-05T09:45:29;25.05;;;14.57;;
16634;SDS011;8431;52.458;9.998;2022-12-05T09:48:04;24.90;;;14.88;;
16634;SDS011;8431;52.458;9.998;2022-12-05T09:50:39;23.63;;;13.63;;
16634;SDS011;8431;52.458;9.998;2022-12-05T09:53:11;27.17;;;14.98;;
16634;SDS011;8431;52.458;9.998;2022-12-05T09:55:47;26.15;;;14.32;;
16634;SDS011;8431;52.458;9.998;2022-12-05T09:58:25;25.48;;;14.23;;
16634;SDS011;8431;52.458;9.998;2022-12-05T10:00:59;27.60;;;14.45;;
16634;SDS011;8431;52.458;9.998;2022-12-05T10:03:31;24.05;;;13.23;;
16634;SDS011;8431;52.458;9.998;2022-12-05T10:06:11;22.70;;;13.38;;
16634;SDS011;8431;52.458;9.998;2022-12-05T10:08:46;20.98;;;12.95;;
16634;SDS011;8431;52.458;9.998;2022-12-05T10:11:24;22.23;;;13.13;;
16634;SDS011;8431;52.458;9.998;2022-12-05T10:14:00;23.92;;;13.20;;
16634;SDS011;8431;52.458;9.998;2022-12-05T10:16:35;20.33;;;12.15;;
16634;SDS011;8431;52.458;9.998;2022-12-05T10:19:09;22.55;;;12.02;;
16634;SDS011;8431;52.458;9.998;2022-12-05T10:21:44;17.70;;;11.05;;
16634;SDS011;8431;52.458;9.998;2022-12-05T10:24:17;17.08;;;10.98;;
16634;SDS011;8431;52.458;9.998;2022-12-05T10:26:50;19.02;;;11.15;;
16634;SDS011;8431;52.458;9.998;2022-12-05T10:29:25;18.45;;;10.88;;
16634;SDS011;8431;52.458;9.998;2022-12-05T10:31:58;20.27;;;12.15;;
16634;SDS011;8431;52.458;9.998;2022-12-05T10:34:33;15.20;;;10.15;;
16634;SDS011;8431;52.458;9.998;2022-12-05T10:37:08;15.70;;;9.50;;
16634;SDS011;8431;52.458;9.998;2022-12-05T10:39:39;14.52;;;10.18;;
16634;SDS011;8431;52.458;9.998;2022-12-05T10:42:08;17.95;;;11.15;;
16634;SDS011;8431;52.458;9.998;2022-12-05T10:44:40;18.63;;;10.77;;
16634;SDS011;8431;52.458;9.998;2022-12-05T10:47:07;15.85;;;10.70;;
16634;SDS011;8431;52.458;9.998;2022-12-05T10:49:35;14.05;;;10.35;;
16634;SDS011;8431;52.458;9.998;2022-12-05T10:52:03;17.33;;;9.98;;
16634;SDS011;8431;52.458;9.998;2022-12-05T10:54:35;14.57;;;10.48;;
16634;SDS011;8431;52.458;9.998;2022-12-05T10:57:18;15.63;;;10.77;;
16634;SDS011;8431;52.458;9.998;2022-12-05T10:59:46;15.98;;;10.18;;
16634;SDS011;8431;52.458;9.998;2022-12-05T11:02:17;14.52;;;9.85;;
16634;SDS011;8431;52.458;9.998;2022-12-05T11:04:48;12.45;;;9.23;;
16634;SDS011;8431;52.458;9.998;2022-12-05T11:07:23;12.80;;;9.50;;
16634;SDS011;8431;52.458;9.998;2022-12-05T11:09:54;15.88;;;10.20;;
16634;SDS011;8431;52.458;9.998;2022-12-05T11:12:21;16.10;;;9.60;;
16634;SDS011;8431;52.458;9.998;2022-12-05T11:14:55;10.75;;;8.55;;
16634;SDS011;8431;52.458;9.998;2022-12-05T11:17:25;13.32;;;9.02;;
16634;SDS011;8431;52.458;9.998;2022-12-05T11:19:55;13.57;;;9.80;;
16634;SDS011;8431;52.458;9.998;2022-12-05T11:22:29;13.40;;;9.10;;
16634;SDS011;8431;52.458;9.998;2022-12-05T11:25:20;12.65;;;9.35;;
16634;SDS011;8431;52.458;9.998;2022-12-05T11:27:51;11.60;;;8.45;;
16634;SDS011;8431;52.458;9.998;2022-12-05T11:30:18;12.73;;;9.20;;
16634;SDS011;8431;52.458;9.998;2022-12-05T11:32:47;10.57;;;8.55;;
16634;SDS011;8431;52.458;9.998;2022-12-05T11:35:20;11.15;;;8.63;;
16634;SDS011;8431;52.458;9.998;2022-12-05T11:37:52;10.48;;;7.80;;
16634;SDS011;8431;52.458;9.998;2022-12-05T11:40:24;9.63;;;7.35;;
16634;SDS011;8431;52.458;9.998;2022-12-05T11:43:06;10.90;;;7.95;;
16634;SDS011;8431;52.458;9.998;2022-12-05T11:45:48;10.80;;;7.63;;
16634;SDS011;8431;52.458;9.998;2022-12-05T11:51:16;10.68;;;8.10;;
16634;SDS011;8431;52.458;9.998;2022-12-05T11:54:03;9.18;;;7.22;;
16634;SDS011;8431;52.458;9.998;2022-12-05T11:56:49;11.32;;;8.32;;
16634;SDS011;8431;52.458;9.998;2022-12-05T11:59:27;9.25;;;7.60;;
16634;SDS011;8431;52.458;9.998;2022-12-05T12:02:25;10.68;;;7.85;;
16634;SDS011;8431;52.458;9.998;2022-12-05T12:05:02;11.27;;;7.82;;
16634;SDS011;8431;52.458;9.998;2022-12-05T12:07:44;11.02;;;7.75;;
16634;SDS011;8431;52.458;9.998;2022-12-05T12:10:25;9.38;;;7.72;;
16634;SDS011;8431;52.458;9.998;2022-12-05T12:13:02;9.52;;;7.50;;
16634;SDS011;8431;52.458;9.998;2022-12-05T12:15:42;9.07;;;7.70;;
16634;SDS011;8431;52.458;9.998;2022-12-05T12:18:30;9.05;;;7.22;;
16634;SDS011;8431;52.458;9.998;2022-12-05T12:21:22;9.75;;;7.45;;
16634;SDS011;8431;52.458;9.998;2022-12-05T12:24:02;10.30;;;7.65;;
16634;SDS011;8431;52.458;9.998;2022-12-05T12:26:42;10.30;;;7.88;;
16634;SDS011;8431;52.458;9.998;2022-12-05T12:29:20;9.15;;;7.57;;
16634;SDS011;8431;52.458;9.998;2022-12-05T12:32:02;8.82;;;7.30;;
16634;SDS011;8431;52.458;9.998;2022-12-05T12:34:42;9.15;;;7.38;;
16634;SDS011;8431;52.458;9.998;2022-12-05T12:37:50;7.95;;;6.78;;
16634;SDS011;8431;52.458;9.998;2022-12-05T12:40:32;8.80;;;6.80;;
16634;SDS011;8431;52.458;9.998;2022-12-05T12:43:09;9.60;;;7.20;;
16634;SDS011;8431;52.458;9.998;2022-12-05T12:45:49;8.20;;;6.75;;
16634;SDS011;8431;52.458;9.998;2022-12-05T12:48:30;7.30;;;6.10;;
16634;SDS011;8431;52.458;9.998;2022-12-05T12:51:07;9.75;;;7.40;;
16634;SDS011;8431;52.458;9.998;2022-12-05T12:53:42;8.50;;;6.75;;
16634;SDS011;8431;52.458;9.998;2022-12-05T12:56:38;7.70;;;6.40;;
16634;SDS011;8431;52.458;9.998;2022-12-05T12:59:18;7.38;;;6.60;;
16634;SDS011;8431;52.458;9.998;2022-12-05T13:01:59;9.48;;;7.05;;
16634;SDS011;8431;52.458;9.998;2022-12-05T13:04:36;8.23;;;7.07;;
16634;SDS011;8431;52.458;9.998;2022-12-05T13:07:12;9.80;;;7.65;;
16634;SDS011;8431;52.458;9.998;2022-12-05T13:09:44;7.70;;;6.97;;
16634;SDS011;8431;52.458;9.998;2022-12-05T13:12:20;7.65;;;6.82;;
16634;SDS011;8431;52.458;9.998;2022-12-05T13:14:51;10.00;;;6.88;;
16634;SDS011;8431;52.458;9.998;2022-12-05T13:17:22;7.82;;;6.70;;
16634;SDS011;8431;52.458;9.998;2022-12-05T13:19:50;7.65;;;6.53;;
16634;SDS011;8431;52.458;9.998;2022-12-05T13:22:18;7.40;;;6.70;;
16634;SDS011;8431;52.458;9.998;2022-12-05T13:24:48;8.77;;;7.20;;
16634;SDS011;8431;52.458;9.998;2022-12-05T13:27:16;10.18;;;7.50;;
16634;SDS011;8431;52.458;9.998;2022-12-05T13:29:47;8.65;;;7.47;;
16634;SDS011;8431;52.458;9.998;2022-12-05T13:35:07;9.20;;;7.70;;
16634;SDS011;8431;52.458;9.998;2022-12-05T13:37:35;9.95;;;7.43;;
16634;SDS011;8431;52.458;9.998;2022-12-05T13:40:28;13.93;;;7.70;;
16634;SDS011;8431;52.458;9.998;2022-12-05T13:43:15;8.13;;;6.57;;
16634;SDS011;8431;52.458;9.998;2022-12-05T13:45:53;8.40;;;7.30;;
16634;SDS011;8431;52.458;9.998;2022-12-05T13:48:32;7.60;;;6.85;;
16634;SDS011;8431;52.458;9.998;2022-12-05T13:51:04;7.40;;;6.70;;
16634;SDS011;8431;52.458;9.998;2022-12-05T13:53:35;9.13;;;7.45;;
16634;SDS011;8431;52.458;9.998;2022-12-05T13:56:05;8.73;;;7.80;;
16634;SDS011;8431;52.458;9.998;2022-12-05T13:58:49;9.48;;;7.90;;
16634;SDS011;8431;52.458;9.998;2022-12-05T14:04:22;9.57;;;7.32;;
16634;SDS011;8431;52.458;9.998;2022-12-05T14:07:05;9.65;;;7.50;;
16634;SDS011;8431;52.458;9.998;2022-12-05T14:09:47;9.15;;;7.80;;
16634;SDS011;8431;52.458;9.998;2022-12-05T14:12:29;8.70;;;7.30;;
16634;SDS011;8431;52.458;9.998;2022-12-05T14:15:30;8.75;;;7.70;;
16634;SDS011;8431;52.458;9.998;2022-12-05T14:18:01;9.35;;;7.97;;
16634;SDS011;8431;52.458;9.998;2022-12-05T14:20:47;7.50;;;6.63;;
16634;SDS011;8431;52.458;9.998;2022-12-05T14:23:28;8.13;;;7.38;;
16634;SDS011;8431;52.458;9.998;2022-12-05T14:26:18;7.93;;;7.22;;
16634;SDS011;8431;52.458;9.998;2022-12-05T14:29:13;8.48;;;7.35;;
16634;SDS011;8431;52.458;9.998;2022-12-05T14:31:55;7.63;;;6.93;;
16634;SDS011;8431;52.458;9.998;2022-12-05T14:34:35;7.93;;;6.78;;
16634;SDS011;8431;52.458;9.998;2022-12-05T14:37:19;9.52;;;8.07;;
16634;SDS011;8431;52.458;9.998;2022-12-05T14:39:52;9.88;;;7.07;;
16634;SDS011;8431;52.458;9.998;2022-12-05T14:42:22;8.68;;;7.78;;
16634;SDS011;8431;52.458;9.998;2022-12-05T14:44:53;12.88;;;8.00;;
16634;SDS011;8431;52.458;9.998;2022-12-05T14:47:24;8.30;;;7.57;;
16634;SDS011;8431;52.458;9.998;2022-12-05T14:49:56;8.63;;;7.72;;
16634;SDS011;8431;52.458;9.998;2022-12-05T14:52:28;10.35;;;8.00;;
16634;SDS011;8431;52.458;9.998;2022-12-05T14:55:04;8.73;;;7.88;;
16634;SDS011;8431;52.458;9.998;2022-12-05T14:57:40;8.45;;;7.65;;
16634;SDS011;8431;52.458;9.998;2022-12-05T15:00:16;8.90;;;8.00;;
16634;SDS011;8431;52.458;9.998;2022-12-05T15:02:46;9.65;;;7.97;;
16634;SDS011;8431;52.458;9.998;2022-12-05T15:05:18;8.25;;;7.45;;
16634;SDS011;8431;52.458;9.998;2022-12-05T15:07:50;9.75;;;7.80;;
16634;SDS011;8431;52.458;9.998;2022-12-05T15:10:20;8.85;;;7.85;;
16634;SDS011;8431;52.458;9.998;2022-12-05T15:12:49;8.57;;;7.53;;
16634;SDS011;8431;52.458;9.998;2022-12-05T15:15:23;8.13;;;7.32;;
16634;SDS011;8431;52.458;9.998;2022-12-05T15:18:01;8.65;;;7.82;;
16634;SDS011;8431;52.458;9.998;2022-12-05T15:20:37;8.40;;;7.03;;
16634;SDS011;8431;52.458;9.998;2022-12-05T15:26:17;11.32;;;7.97;;
16634;SDS011;8431;52.458;9.998;2022-12-05T15:29:01;10.60;;;7.70;;
16634;SDS011;8431;52.458;9.998;2022-12-05T15:31:44;8.20;;;7.43;;